sensor_id;sensor_type;location;lat;lon;timestamp;pressure;altitude;pressure_sealevel;temperature;humidity
21742;BME280;11033;47.490;11.116;2024-03-23T00:53:14;92643.88;;;8.88;66.12
21742;BME280;11033;47.490;11.116;2024-03-23T00:55:43;92642.78;;;8.86;66.16
21742;BME280;11033;47.490;11.116;2024-03-23T00:58:08;92638.28;;;8.83;65.98
21742;BME280;11033;47.490;11.116;2024-03-23T01:00:34;92640.69;;;8.73;66.71
21742;BME280;11033;47.490;11.116;2024-03-23T01:02:59;92620.47;;;8.63;66.78
21742;BME280;11033;47.490;11.116;2024-03-23T01:05:24;92633.00;;;8.59;66.16
21742;BME280;11033;47.490;11.116;2024-03-23T01:07:50;92633.91;;;8.49;67.13
21742;BME280;11033;47.490;11.116;2024-03-23T01:10:15;92631.34;;;8.46;66.45
21742;BME280;11033;47.490;11.116;2024-03-23T01:12:40;92615.63;;;8.35;67.22
21742;BME280;11033;47.490;11.116;2024-03-23T01:15:06;92613.81;;;8.32;66.63
21742;BME280;11033;47.490;11.116;2024-03-23T01:17:31;92620.25;;;8.27;68.19
21742;BME280;11033;47.490;11.116;2024-03-23T01:19:57;92608.97;;;8.23;67.33
21742;BME280;11033;47.490;11.116;2024-03-23T01:22:22;92610.88;;;8.23;66.86
21742;BME280;11033;47.490;11.116;2024-03-23T01:24:47;92614.72;;;8.18;67.24
21742;BME280;11033;47.490;11.116;2024-03-23T01:27:12;92606.13;;;8.11;68.29
21742;BME280;11033;47.490;11.116;2024-03-23T01:29:38;92608.44;;;8.09;68.63
21742;BME280;11033;47.490;11.116;2024-03-23T01:32:04;92600.09;;;8.10;67.63
21742;BME280;11033;47.490;11.116;2024-03-23T01:34:29;92600.97;;;8.04;68.08
21742;BME280;11033;47.490;11.116;2024-03-23T01:36:54;92591.94;;;8.01;68.28
21742;BME280;11033;47.490;11.116;2024-03-23T01:39:20;92599.13;;;8.01;68.36
21742;BME280;11033;47.490;11.116;2024-03-23T01:41:45;92596.22;;;7.92;68.88
21742;BME280;11033;47.490;11.116;2024-03-23T01:44:10;92592.09;;;7.91;69.09
21742;BME280;11033;47.490;11.116;2024-03-23T01:46:37;92590.97;;;7.88;67.90
21742;BME280;11033;47.490;11.116;2024-03-23T01:49:03;92590.69;;;7.83;68.08
21742;BME280;11033;47.490;11.116;2024-03-23T01:51:29;92602.06;;;7.80;68.70
21742;BME280;11033;47.490;11.116;2024-03-23T01:53:56;92601.66;;;7.81;68.82
21742;BME280;11033;47.490;11.116;2024-03-23T01:56:21;92597.81;;;7.86;67.72
21742;BME280;11033;47.490;11.116;2024-03-23T01:58:47;92598.94;;;7.85;67.90
21742;BME280;11033;47.490;11.116;2024-03-23T02:01:12;92593.78;;;7.77;68.90
21742;BME280;11033;47.490;11.116;2024-03-23T02:03:37;92582.31;;;7.88;67.42
21742;BME280;11033;47.490;11.116;2024-03-23T02:06:03;92576.69;;;7.86;67.17
21742;BME280;11033;47.490;11.116;2024-03-23T02:08:29;92585.38;;;7.86;67.50
21742;BME280;11033;47.490;11.116;2024-03-23T02:10:55;92577.53;;;7.79;68.61
21742;BME280;11033;47.490;11.116;2024-03-23T02:13:21;92579.22;;;7.66;69.65
21742;BME280;11033;47.490;11.116;2024-03-23T02:15:46;92582.50;;;7.73;68.24
21742;BME280;11033;47.490;11.116;2024-03-23T02:18:11;92575.78;;;7.69;68.57
21742;BME280;11033;47.490;11.116;2024-03-23T02:20:37;92578.88;;;7.64;68.35
21742;BME280;11033;47.490;11.116;2024-03-23T02:23:04;92576.19;;;7.67;67.49
21742;BME280;11033;47.490;11.116;2024-03-23T02:25:31;92566.09;;;7.59;68.09
21742;BME280;11033;47.490;11.116;2024-03-23T02:27:56;92563.09;;;7.60;67.74
21742;BME280;11033;47.490;11.116;2024-03-23T02:30:23;92552.09;;;7.62;67.29
21742;BME280;11033;47.490;11.116;2024-03-23T02:32:49;92553.28;;;7.57;67.45
21742;BME280;11033;47.490;11.116;2024-03-23T02:35:14;92556.16;;;7.40;69.27
21742;BME280;11033;47.490;11.116;2024-03-23T02:37:39;92556.03;;;7.50;67.78
21742;BME280;11033;47.490;11.116;2024-03-23T02:40:05;92561.41;;;7.43;68.53
21742;BME280;11033;47.490;11.116;2024-03-23T02:42:30;92567.38;;;7.47;67.63
21742;BME280;11033;47.490;11.116;2024-03-23T02:44:56;92555.41;;;7.39;68.16
21742;BME280;11033;47.490;11.116;2024-03-23T02:47:22;92554.56;;;7.19;70.02
21742;BME280;11033;47.490;11.116;2024-03-23T02:49:47;92548.81;;;7.24;69.38
21742;BME280;11033;47.490;11.116;2024-03-23T02:52:12;92549.91;;;7.30;68.36
21742;BME280;11033;47.490;11.116;2024-03-23T02:54:38;92540.81;;;7.31;68.70
21742;BME280;11033;47.490;11.116;2024-03-23T02:57:03;92528.84;;;7.26;67.47
21742;BME280;11033;47.490;11.116;2024-03-23T02:59:28;92532.69;;;7.18;69.11
21742;BME280;11033;47.490;11.116;2024-03-23T03:01:54;92531.94;;;7.18;68.79
21742;BME280;11033;47.490;11.116;2024-03-23T03:04:19;92536.09;;;6.85;70.28
21742;BME280;11033;47.490;11.116;2024-03-23T03:06:48;92538.81;;;7.12;68.12
21742;BME280;11033;47.490;11.116;2024-03-23T03:09:13;92540.16;;;6.93;69.77
21742;BME280;11033;47.490;11.116;2024-03-23T03:11:38;92535.88;;;7.03;68.92
21742;BME280;11033;47.490;11.116;2024-03-23T03:14:03;92538.91;;;7.01;68.48
21742;BME280;11033;47.490;11.116;2024-03-23T03:16:29;92536.06;;;6.89;69.55
21742;BME280;11033;47.490;11.116;2024-03-23T03:18:54;92540.88;;;6.94;69.74
21742;BME280;11033;47.490;11.116;2024-03-23T03:21:19;92535.59;;;6.97;68.19
21742;BME280;11033;47.490;11.116;2024-03-23T03:23:45;92524.63;;;6.99;67.88
21742;BME280;11033;47.490;11.116;2024-03-23T03:26:10;92523.88;;;6.98;67.66
21742;BME280;11033;47.490;11.116;2024-03-23T03:28:35;92522.38;;;7.01;67.23
21742;BME280;11033;47.490;11.116;2024-03-23T03:31:00;92522.81;;;6.92;67.82
21742;BME280;11033;47.490;11.116;2024-03-23T03:33:28;92513.75;;;6.97;68.33
21742;BME280;11033;47.490;11.116;2024-03-23T03:35:54;92502.19;;;6.84;68.49
21742;BME280;11033;47.490;11.116;2024-03-23T03:38:19;92509.78;;;6.82;67.94
21742;BME280;11033;47.490;11.116;2024-03-23T03:40:44;92507.94;;;6.78;68.54
21742;BME280;11033;47.490;11.116;2024-03-23T03:43:10;92502.19;;;6.84;67.39
21742;BME280;11033;47.490;11.116;2024-03-23T03:45:35;92497.44;;;6.71;68.14
21742;BME280;11033;47.490;11.116;2024-03-23T03:48:00;92498.91;;;6.76;67.99
21742;BME280;11033;47.490;11.116;2024-03-23T03:50:26;92487.59;;;6.75;67.53
21742;BME280;11033;47.490;11.116;2024-03-23T03:52:51;92489.47;;;6.78;67.62
21742;BME280;11033;47.490;11.116;2024-03-23T03:55:16;92484.25;;;6.71;68.05
21742;BME280;11033;47.490;11.116;2024-03-23T03:57:42;92481.31;;;6.66;68.65
21742;BME280;11033;47.490;11.116;2024-03-23T04:00:08;92479.03;;;6.68;67.72
21742;BME280;11033;47.490;11.116;2024-03-23T04:02:37;92473.09;;;6.60;68.27
21742;BME280;11033;47.490;11.116;2024-03-23T04:05:03;92472.69;;;6.62;68.14
21742;BME280;11033;47.490;11.116;2024-03-23T04:07:28;92477.72;;;6.49;68.47
21742;BME280;11033;47.490;11.116;2024-03-23T04:09:54;92472.97;;;6.37;68.34
21742;BME280;11033;47.490;11.116;2024-03-23T04:12:19;92468.38;;;6.45;68.52
21742;BME280;11033;47.490;11.116;2024-03-23T04:14:45;92470.97;;;6.48;67.42
21742;BME280;11033;47.490;11.116;2024-03-23T04:17:10;92465.03;;;6.41;67.54
21742;BME280;11033;47.490;11.116;2024-03-23T04:19:36;92466.13;;;6.43;67.91
21742;BME280;11033;47.490;11.116;2024-03-23T04:22:01;92469.19;;;6.38;67.34
21742;BME280;11033;47.490;11.116;2024-03-23T04:24:26;92462.78;;;6.39;67.49
21742;BME280;11033;47.490;11.116;2024-03-23T04:26:52;92451.22;;;6.29;68.31
21742;BME280;11033;47.490;11.116;2024-03-23T04:29:17;92447.06;;;6.32;67.46
21742;BME280;11033;47.490;11.116;2024-03-23T04:31:42;92443.63;;;6.35;67.69
21742;BME280;11033;47.490;11.116;2024-03-23T04:34:08;92442.50;;;6.36;67.50
21742;BME280;11033;47.490;11.116;2024-03-23T04:36:33;92443.69;;;6.28;66.81
21742;BME280;11033;47.490;11.116;2024-03-23T04:38:59;92432.78;;;6.29;67.18
21742;BME280;11033;47.490;11.116;2024-03-23T04:41:25;92433.31;;;6.14;67.99
21742;BME280;11033;47.490;11.116;2024-03-23T04:43:51;92432.16;;;6.18;66.82
21742;BME280;11033;47.490;11.116;2024-03-23T04:46:16;92430.56;;;6.24;67.12
21742;BME280;11033;47.490;11.116;2024-03-23T04:48:41;92430.59;;;6.21;66.57
21742;BME280;11033;47.490;11.116;2024-03-23T04:51:06;92429.13;;;6.16;67.91
21742;BME280;11033;47.490;11.116;2024-03-23T04:53:32;92429.94;;;6.13;67.53
21742;BME280;11033;47.490;11.116;2024-03-23T04:55:58;92429.25;;;6.06;67.60
21742;BME280;11033;47.490;11.116;2024-03-23T04:58:24;92424.25;;;6.15;66.34
21742;BME280;11033;47.490;11.116;2024-03-23T05:00:57;92420.53;;;6.12;66.43
21742;BME280;11033;47.490;11.116;2024-03-23T05:03:23;92417.94;;;6.09;66.74
21742;BME280;11033;47.490;11.116;2024-03-23T05:05:49;92410.00;;;6.12;66.09
21742;BME280;11033;47.490;11.116;2024-03-23T05:08:18;92403.97;;;6.12;66.63
21742;BME280;11033;47.490;11.116;2024-03-23T05:10:43;92397.28;;;6.07;66.46
21742;BME280;11033;47.490;11.116;2024-03-23T05:13:09;92403.25;;;6.08;66.39
21742;BME280;11033;47.490;11.116;2024-03-23T05:15:34;92403.72;;;6.03;67.51
21742;BME280;11033;47.490;11.116;2024-03-23T05:18:00;92407.56;;;5.91;66.76
21742;BME280;11033;47.490;11.116;2024-03-23T05:20:25;92403.03;;;5.95;66.57
21742;BME280;11033;47.490;11.116;2024-03-23T05:22:50;92393.56;;;6.01;65.93
21742;BME280;11033;47.490;11.116;2024-03-23T05:25:15;92393.19;;;6.03;66.10
21742;BME280;11033;47.490;11.116;2024-03-23T05:27:41;92386.41;;;6.02;66.75
21742;BME280;11033;47.490;11.116;2024-03-23T05:30:07;92387.66;;;5.90;67.83
21742;BME280;11033;47.490;11.116;2024-03-23T05:32:34;92381.19;;;5.98;67.03
21742;BME280;11033;47.490;11.116;2024-03-23T05:34:59;92378.16;;;6.00;66.45
21742;BME280;11033;47.490;11.116;2024-03-23T05:37:24;92374.41;;;5.97;66.81
21742;BME280;11033;47.490;11.116;2024-03-23T05:39:50;92374.81;;;5.96;66.33
21742;BME280;11033;47.490;11.116;2024-03-23T05:42:16;92381.56;;;5.97;66.46
21742;BME280;11033;47.490;11.116;2024-03-23T05:44:44;92374.09;;;5.92;67.57
21742;BME280;11033;47.490;11.116;2024-03-23T05:47:09;92362.16;;;5.80;67.67
21742;BME280;11033;47.490;11.116;2024-03-23T05:49:34;92362.97;;;5.73;67.13
21742;BME280;11033;47.490;11.116;2024-03-23T05:51:59;92361.44;;;5.76;67.90
21742;BME280;11033;47.490;11.116;2024-03-23T05:54:27;92363.38;;;5.72;68.02
21742;BME280;11033;47.490;11.116;2024-03-23T05:56:55;92358.91;;;5.65;67.41
21742;BME280;11033;47.490;11.116;2024-03-23T05:59:20;92351.34;;;5.71;67.13
21742;BME280;11033;47.490;11.116;2024-03-23T06:01:46;92340.78;;;5.74;67.40
21742;BME280;11033;47.490;11.116;2024-03-23T06:04:12;92337.84;;;5.69;68.22
21742;BME280;11033;47.490;11.116;2024-03-23T06:06:39;92331.06;;;5.68;67.58
21742;BME280;11033;47.490;11.116;2024-03-23T06:09:04;92334.38;;;5.75;67.15
21742;BME280;11033;47.490;11.116;2024-03-23T06:11:29;92321.94;;;5.79;66.75
21742;BME280;11033;47.490;11.116;2024-03-23T06:13:55;92315.88;;;5.82;66.83
21742;BME280;11033;47.490;11.116;2024-03-23T06:16:21;92318.13;;;5.84;67.25
21742;BME280;11033;47.490;11.116;2024-03-23T06:18:49;92322.66;;;5.83;66.85
21742;BME280;11033;47.490;11.116;2024-03-23T06:21:14;92300.75;;;5.94;66.57
21742;BME280;11033;47.490;11.116;2024-03-23T06:23:41;92287.59;;;5.94;67.01
21742;BME280;11033;47.490;11.116;2024-03-23T06:26:06;92279.31;;;5.95;66.69
21742;BME280;11033;47.490;11.116;2024-03-23T06:28:31;92281.91;;;5.99;67.00
21742;BME280;11033;47.490;11.116;2024-03-23T06:30:57;92276.97;;;6.01;66.99
21742;BME280;11033;47.490;11.116;2024-03-23T06:33:22;92273.53;;;6.07;66.08
21742;BME280;11033;47.490;11.116;2024-03-23T06:35:52;92265.59;;;6.11;65.38
21742;BME280;11033;47.490;11.116;2024-03-23T06:38:18;92265.13;;;6.16;65.49
21742;BME280;11033;47.490;11.116;2024-03-23T06:40:43;92265.03;;;6.23;64.50
21742;BME280;11033;47.490;11.116;2024-03-23T06:43:13;92255.91;;;6.31;63.14
21742;BME280;11033;47.490;11.116;2024-03-23T06:45:38;92241.88;;;6.38;64.10
21742;BME280;11033;47.490;11.116;2024-03-23T06:48:04;92255.31;;;6.47;63.36
21742;BME280;11033;47.490;11.116;2024-03-23T06:50:33;92254.50;;;6.50;62.73
21742;BME280;11033;47.490;11.116;2024-03-23T06:52:58;92241.22;;;6.57;62.63
21742;BME280;11033;47.490;11.116;2024-03-23T06:55:24;92239.25;;;6.64;63.44
21742;BME280;11033;47.490;11.116;2024-03-23T06:57:51;92227.13;;;6.70;63.79
21742;BME280;11033;47.490;11.116;2024-03-23T07:00:17;92210.84;;;6.75;63.13
21742;BME280;11033;47.490;11.116;2024-03-23T07:02:42;92198.69;;;6.82;63.85
21742;BME280;11033;47.490;11.116;2024-03-23T07:05:09;92191.34;;;6.93;63.60
21742;BME280;11033;47.490;11.116;2024-03-23T07:07:34;92198.41;;;6.99;63.32
21742;BME280;11033;47.490;11.116;2024-03-23T07:10:00;92197.94;;;7.04;62.97
21742;BME280;11033;47.490;11.116;2024-03-23T07:12:25;92210.94;;;7.15;61.92
21742;BME280;11033;47.490;11.116;2024-03-23T07:14:50;92201.78;;;7.23;61.78
21742;BME280;11033;47.490;11.116;2024-03-23T07:17:15;92196.38;;;7.30;59.95
21742;BME280;11033;47.490;11.116;2024-03-23T07:19:41;92194.72;;;7.36;61.17
21742;BME280;11033;47.490;11.116;2024-03-23T07:22:06;92201.31;;;7.48;60.82
21742;BME280;11033;47.490;11.116;2024-03-23T07:24:32;92177.09;;;7.53;61.30
21742;BME280;11033;47.490;11.116;2024-03-23T07:26:57;92161.88;;;7.60;61.95
21742;BME280;11033;47.490;11.116;2024-03-23T07:29:23;92162.41;;;7.71;63.81
21742;BME280;11033;47.490;11.116;2024-03-23T07:31:48;92151.69;;;7.78;63.97
21742;BME280;11033;47.490;11.116;2024-03-23T07:34:14;92143.47;;;7.93;64.71
21742;BME280;11033;47.490;11.116;2024-03-23T07:36:39;92144.56;;;8.11;61.82
21742;BME280;11033;47.490;11.116;2024-03-23T07:39:04;92158.44;;;8.15;62.07
21742;BME280;11033;47.490;11.116;2024-03-23T07:41:29;92169.59;;;8.23;62.10
21742;BME280;11033;47.490;11.116;2024-03-23T07:43:55;92154.69;;;8.33;62.20
21742;BME280;11033;47.490;11.116;2024-03-23T07:46:21;92167.34;;;8.41;62.52
21742;BME280;11033;47.490;11.116;2024-03-23T07:48:46;92156.13;;;8.53;61.98
21742;BME280;11033;47.490;11.116;2024-03-23T07:51:21;92165.97;;;8.69;62.37
21742;BME280;11033;47.490;11.116;2024-03-23T07:53:46;92164.13;;;8.82;62.50
21742;BME280;11033;47.490;11.116;2024-03-23T07:56:13;92155.41;;;8.98;61.63
21742;BME280;11033;47.490;11.116;2024-03-23T07:58:40;92152.75;;;9.14;62.09
21742;BME280;11033;47.490;11.116;2024-03-23T08:01:11;92162.22;;;9.28;61.81
21742;BME280;11033;47.490;11.116;2024-03-23T08:03:39;92177.97;;;9.47;61.44
21742;BME280;11033;47.490;11.116;2024-03-23T08:06:09;92178.34;;;9.62;59.94
21742;BME280;11033;47.490;11.116;2024-03-23T08:08:35;92181.34;;;9.77;58.77
21742;BME280;11033;47.490;11.116;2024-03-23T08:11:00;92172.44;;;9.83;56.35
21742;BME280;11033;47.490;11.116;2024-03-23T08:13:26;92181.28;;;9.93;57.63
21742;BME280;11033;47.490;11.116;2024-03-23T08:15:52;92181.38;;;10.02;54.57
21742;BME280;11033;47.490;11.116;2024-03-23T08:18:17;92201.28;;;10.23;54.17
21742;BME280;11033;47.490;11.116;2024-03-23T08:20:42;92212.63;;;10.23;54.50
21742;BME280;11033;47.490;11.116;2024-03-23T08:23:08;92216.88;;;10.33;53.12
21742;BME280;11033;47.490;11.116;2024-03-23T08:25:34;92217.63;;;10.46;52.34
21742;BME280;11033;47.490;11.116;2024-03-23T08:27:59;92213.91;;;10.69;51.72
21742;BME280;11033;47.490;11.116;2024-03-23T08:30:25;92217.84;;;10.64;50.35
21742;BME280;11033;47.490;11.116;2024-03-23T08:32:51;92244.25;;;10.81;51.71
21742;BME280;11033;47.490;11.116;2024-03-23T08:35:16;92233.00;;;10.89;52.27
21742;BME280;11033;47.490;11.116;2024-03-23T08:37:41;92232.16;;;11.05;52.33
21742;BME280;11033;47.490;11.116;2024-03-23T08:40:07;92237.41;;;11.18;52.85
21742;BME280;11033;47.490;11.116;2024-03-23T08:42:33;92241.88;;;11.68;55.69
21742;BME280;11033;47.490;11.116;2024-03-23T08:44:59;92236.16;;;11.91;55.69
21742;BME280;11033;47.490;11.116;2024-03-23T08:47:24;92241.13;;;12.01;56.27
21742;BME280;11033;47.490;11.116;2024-03-23T08:49:49;92241.91;;;12.11;56.75
21742;BME280;11033;47.490;11.116;2024-03-23T08:52:14;92253.78;;;12.41;57.18
21742;BME280;11033;47.490;11.116;2024-03-23T08:54:40;92253.41;;;12.51;57.17
21742;BME280;11033;47.490;11.116;2024-03-23T08:57:05;92250.50;;;12.68;57.00
21742;BME280;11033;47.490;11.116;2024-03-23T08:59:32;92252.47;;;12.76;56.59
21742;BME280;11033;47.490;11.116;2024-03-23T09:01:57;92263.03;;;12.89;56.05
21742;BME280;11033;47.490;11.116;2024-03-23T09:04:22;92255.06;;;12.98;55.63
21742;BME280;11033;47.490;11.116;2024-03-23T09:06:48;92256.59;;;13.08;55.53
21742;BME280;11033;47.490;11.116;2024-03-23T09:09:13;92275.00;;;13.15;54.94
21742;BME280;11033;47.490;11.116;2024-03-23T09:11:38;92276.75;;;13.18;54.50
21742;BME280;11033;47.490;11.116;2024-03-23T09:14:04;92274.38;;;13.20;54.24
21742;BME280;11033;47.490;11.116;2024-03-23T09:16:29;92307.28;;;13.26;55.06
21742;BME280;11033;47.490;11.116;2024-03-23T09:18:54;92296.16;;;13.28;54.97
21742;BME280;11033;47.490;11.116;2024-03-23T09:21:19;92301.06;;;13.29;54.59
21742;BME280;11033;47.490;11.116;2024-03-23T09:23:45;92311.81;;;13.17;54.59
21742;BME280;11033;47.490;11.116;2024-03-23T09:26:10;92313.31;;;13.18;54.12
21742;BME280;11033;47.490;11.116;2024-03-23T09:28:36;92321.44;;;13.14;53.63
21742;BME280;11033;47.490;11.116;2024-03-23T09:31:02;92318.16;;;13.10;54.06
21742;BME280;11033;47.490;11.116;2024-03-23T09:33:28;92338.03;;;13.18;54.44
21742;BME280;11033;47.490;11.116;2024-03-23T09:35:54;92355.31;;;13.14;52.82
21742;BME280;11033;47.490;11.116;2024-03-23T09:38:20;92363.75;;;13.12;52.03
21742;BME280;11033;47.490;11.116;2024-03-23T09:40:48;92361.16;;;12.99;52.75
21742;BME280;11033;47.490;11.116;2024-03-23T09:43:15;92365.91;;;13.04;53.25
21742;BME280;11033;47.490;11.116;2024-03-23T09:45:41;92366.16;;;12.97;52.95
21742;BME280;11033;47.490;11.116;2024-03-23T09:48:09;92376.84;;;13.06;52.82
21742;BME280;11033;47.490;11.116;2024-03-23T09:50:39;92363.00;;;12.90;52.75
21742;BME280;11033;47.490;11.116;2024-03-23T09:53:09;92375.88;;;12.91;52.91
21742;BME280;11033;47.490;11.116;2024-03-23T09:55:35;92373.88;;;12.74;52.79
21742;BME280;11033;47.490;11.116;2024-03-23T09:58:02;92390.38;;;12.47;52.45
21742;BME280;11033;47.490;11.116;2024-03-23T10:00:27;92388.03;;;12.49;53.18
21742;BME280;11033;47.490;11.116;2024-03-23T10:02:55;92399.38;;;12.28;52.99
21742;BME280;11033;47.490;11.116;2024-03-23T10:05:22;92403.56;;;12.16;52.94
21742;BME280;11033;47.490;11.116;2024-03-23T10:07:50;92439.88;;;11.97;53.64
21742;BME280;11033;47.490;11.116;2024-03-23T10:10:16;92434.47;;;11.76;53.51
21742;BME280;11033;47.490;11.116;2024-03-23T10:12:46;92444.44;;;11.46;55.30
21742;BME280;11033;47.490;11.116;2024-03-23T10:15:24;92452.75;;;11.36;56.06
21742;BME280;11033;47.490;11.116;2024-03-23T10:17:51;92456.31;;;11.17;56.24
21742;BME280;11033;47.490;11.116;2024-03-23T10:20:23;92441.84;;;11.18;57.68
21742;BME280;11033;47.490;11.116;2024-03-23T10:22:49;92431.75;;;11.00;58.68
21742;BME280;11033;47.490;11.116;2024-03-23T10:25:15;92434.00;;;11.01;58.64
21742;BME280;11033;47.490;11.116;2024-03-23T10:27:40;92447.22;;;10.89;58.30
21742;BME280;11033;47.490;11.116;2024-03-23T10:30:13;92459.28;;;10.77;58.48
21742;BME280;11033;47.490;11.116;2024-03-23T10:32:41;92451.59;;;10.66;60.32
21742;BME280;11033;47.490;11.116;2024-03-23T10:35:17;92459.94;;;10.52;60.69
21742;BME280;11033;47.490;11.116;2024-03-23T10:37:49;92467.06;;;10.55;62.32
21742;BME280;11033;47.490;11.116;2024-03-23T10:40:17;92465.56;;;10.54;63.84
21742;BME280;11033;47.490;11.116;2024-03-23T10:42:44;92455.00;;;10.67;63.68
21742;BME280;11033;47.490;11.116;2024-03-23T10:45:09;92447.91;;;10.64;62.41
21742;BME280;11033;47.490;11.116;2024-03-23T10:47:36;92468.16;;;10.42;59.69
21742;BME280;11033;47.490;11.116;2024-03-23T10:50:03;92464.69;;;10.45;59.87
21742;BME280;11033;47.490;11.116;2024-03-23T10:52:29;92473.91;;;10.24;60.79
21742;BME280;11033;47.490;11.116;2024-03-23T10:54:55;92465.94;;;9.92;61.26
21742;BME280;11033;47.490;11.116;2024-03-23T10:57:23;92459.13;;;9.91;61.18
21742;BME280;11033;47.490;11.116;2024-03-23T10:59:52;92467.25;;;9.84;60.14
21742;BME280;11033;47.490;11.116;2024-03-23T11:02:19;92471.31;;;9.88;60.35
21742;BME280;11033;47.490;11.116;2024-03-23T11:04:45;92474.50;;;9.47;60.38
21742;BME280;11033;47.490;11.116;2024-03-23T11:07:31;92503.22;;;9.49;60.82
21742;BME280;11033;47.490;11.116;2024-03-23T11:09:58;92526.72;;;9.27;60.79
21742;BME280;11033;47.490;11.116;2024-03-23T11:15:00;92518.84;;;9.43;60.82
21742;BME280;11033;47.490;11.116;2024-03-23T11:17:27;92520.88;;;9.36;61.07
21742;BME280;11033;47.490;11.116;2024-03-23T11:20:02;92520.88;;;9.36;60.84
21742;BME280;11033;47.490;11.116;2024-03-23T11:25:11;92526.19;;;9.16;60.05
21742;BME280;11033;47.490;11.116;2024-03-23T11:27:37;92539.09;;;9.14;60.67
21742;BME280;11033;47.490;11.116;2024-03-23T11:30:12;92533.03;;;8.94;61.99
21742;BME280;11033;47.490;11.116;2024-03-23T11:32:37;92538.47;;;8.87;60.38
21742;BME280;11033;47.490;11.116;2024-03-23T11:35:03;92546.03;;;8.65;63.03
21742;BME280;11033;47.490;11.116;2024-03-23T11:37:28;92545.84;;;8.76;62.72
21742;BME280;11033;47.490;11.116;2024-03-23T11:39:53;92536.63;;;8.84;63.63
21742;BME280;11033;47.490;11.116;2024-03-23T11:42:19;92546.00;;;8.88;62.52
21742;BME280;11033;47.490;11.116;2024-03-23T11:44:46;92552.56;;;8.80;62.94
21742;BME280;11033;47.490;11.116;2024-03-23T11:47:12;92543.44;;;8.85;62.12
21742;BME280;11033;47.490;11.116;2024-03-23T11:49:37;92547.84;;;8.91;61.47
21742;BME280;11033;47.490;11.116;2024-03-23T11:52:06;92557.94;;;8.96;64.45
21742;BME280;11033;47.490;11.116;2024-03-23T11:54:32;92555.91;;;8.84;62.02
21742;BME280;11033;47.490;11.116;2024-03-23T11:57:01;92566.13;;;8.82;63.02
21742;BME280;11033;47.490;11.116;2024-03-23T11:59:42;92562.41;;;8.80;62.25
21742;BME280;11033;47.490;11.116;2024-03-23T12:02:09;92562.16;;;8.70;62.92
21742;BME280;11033;47.490;11.116;2024-03-23T12:04:35;92578.66;;;8.78;62.00
21742;BME280;11033;47.490;11.116;2024-03-23T12:07:20;92589.44;;;8.67;60.82
21742;BME280;11033;47.490;11.116;2024-03-23T12:09:47;92588.91;;;8.30;62.56
21742;BME280;11033;47.490;11.116;2024-03-23T12:12:18;92589.09;;;8.42;62.48
21742;BME280;11033;47.490;11.116;2024-03-23T12:14:44;92580.34;;;8.45;63.13
21742;BME280;11033;47.490;11.116;2024-03-23T12:17:12;92565.06;;;8.56;63.08
21742;BME280;11033;47.490;11.116;2024-03-23T12:19:37;92567.13;;;8.45;62.03
21742;BME280;11033;47.490;11.116;2024-03-23T12:22:04;92569.72;;;8.49;62.43
21742;BME280;11033;47.490;11.116;2024-03-23T12:24:31;92563.09;;;8.37;62.87
21742;BME280;11033;47.490;11.116;2024-03-23T12:27:03;92558.31;;;8.32;62.48
21742;BME280;11033;47.490;11.116;2024-03-23T12:29:34;92575.38;;;8.24;63.85
21742;BME280;11033;47.490;11.116;2024-03-23T12:32:00;92586.69;;;8.24;62.36
21742;BME280;11033;47.490;11.116;2024-03-23T12:34:26;92566.22;;;8.32;62.15
21742;BME280;11033;47.490;11.116;2024-03-23T12:36:51;92566.28;;;8.25;63.05
21742;BME280;11033;47.490;11.116;2024-03-23T12:39:17;92584.16;;;8.17;61.34
21742;BME280;11033;47.490;11.116;2024-03-23T12:41:43;92589.78;;;8.19;61.40
21742;BME280;11033;47.490;11.116;2024-03-23T12:44:08;92583.97;;;8.32;61.54
21742;BME280;11033;47.490;11.116;2024-03-23T12:46:36;92605.16;;;8.28;61.84
21742;BME280;11033;47.490;11.116;2024-03-23T12:49:02;92611.97;;;8.25;60.98
21742;BME280;11033;47.490;11.116;2024-03-23T12:51:28;92597.66;;;8.23;62.79
21742;BME280;11033;47.490;11.116;2024-03-23T12:53:53;92601.09;;;8.20;61.62
21742;BME280;11033;47.490;11.116;2024-03-23T12:56:19;92601.00;;;8.27;61.21
21742;BME280;11033;47.490;11.116;2024-03-23T12:58:44;92601.09;;;8.20;59.95
21742;BME280;11033;47.490;11.116;2024-03-23T13:01:09;92598.72;;;8.29;60.67
21742;BME280;11033;47.490;11.116;2024-03-23T13:03:35;92606.13;;;8.11;61.14
21742;BME280;11033;47.490;11.116;2024-03-23T13:06:00;92603.91;;;7.83;61.09
21742;BME280;11033;47.490;11.116;2024-03-23T13:08:25;92589.84;;;7.89;61.93
21742;BME280;11033;47.490;11.116;2024-03-23T13:10:53;92582.91;;;7.99;61.53
21742;BME280;11033;47.490;11.116;2024-03-23T13:13:20;92616.81;;;8.04;61.43
21742;BME280;11033;47.490;11.116;2024-03-23T13:15:52;92609.25;;;8.06;61.74
21742;BME280;11033;47.490;11.116;2024-03-23T13:18:17;92602.78;;;8.07;62.52
21742;BME280;11033;47.490;11.116;2024-03-23T13:20:43;92590.28;;;8.11;61.67
21742;BME280;11033;47.490;11.116;2024-03-23T13:23:09;92593.72;;;8.08;61.69
21742;BME280;11033;47.490;11.116;2024-03-23T13:25:34;92595.94;;;8.13;61.85
21742;BME280;11033;47.490;11.116;2024-03-23T13:27:59;92607.19;;;8.17;61.10
21742;BME280;11033;47.490;11.116;2024-03-23T13:30:26;92606.44;;;8.16;59.85
21742;BME280;11033;47.490;11.116;2024-03-23T13:32:51;92599.16;;;8.24;59.91
21742;BME280;11033;47.490;11.116;2024-03-23T13:35:16;92604.56;;;8.17;59.81
21742;BME280;11033;47.490;11.116;2024-03-23T13:37:41;92595.31;;;8.29;59.93
21742;BME280;11033;47.490;11.116;2024-03-23T13:40:07;92593.44;;;8.29;57.25
21742;BME280;11033;47.490;11.116;2024-03-23T13:42:33;92596.84;;;8.30;57.50
21742;BME280;11033;47.490;11.116;2024-03-23T13:44:58;92583.25;;;8.27;57.42
21742;BME280;11033;47.490;11.116;2024-03-23T13:47:23;92583.97;;;8.32;57.99
21742;BME280;11033;47.490;11.116;2024-03-23T13:49:49;92584.72;;;8.32;57.33